Main page
METAR-TAF:

METAR-TAF

Airports :

Eindhoven, Netherlands

Eindhoven Airport

latitude: 51-27N, longitude: 005-25E, elevation: 23 m

Current weather observation

The report was made 22 minutes ago, at 23:55 UTC
Wind 9 kt from the Northeast, varying between North and East/Northeast
Temperature -2°C
Humidity 80%
Pressure 1023 hPa
Visibility 10 km or more

METAR: EHEH 222355Z AUTO 05009KT 010V070 9999 NCD M02/M05 Q1023 BLU

Time: 01:17 (00:17 UTC)

Forecast

The report was made 1 hour and 8 minutes ago, at 23:09 UTC
Forecast valid from 23 at 00 UTC to 24 at 06 UTC
Wind 8 kt from the Northeast
Visibility 10 km or more
no clouds below 1500 m and no cumulonimbus
Probability 30% :
Temporary
from 23 at 05 UTC to 23 at 08 UTC
Scattered clouds at a height of 500 ft
Broken clouds at a height of 900 ft
Becoming
from 23 at 08 UTC to 23 at 11 UTC
Wind 12 kt from the East/Northeast with gusts up to 22 kt

TAF: EHEH 222309Z 2300/2406 05008KT CAVOK PROB30 TEMPO 2305/2308 SCT005 BKN009 BECMG 2308/2311 07012G22KT

Weather observations and forecasts of more than 4000 airports (METAR and TAF reports).

The available stations are represented by yellow and red dots on the map.

Hover mouse over dot to see the name of the station.

Then click to see weather observations and forecasts.

To change the map : click on the green buttons with a black cross to zoom in, on the green button with a dash to zoom out, or on the green arrows for adjacent maps.


METAR-TAF: